sensor_id;sensor_type;location;lat;lon;timestamp;P1;durP1;ratioP1;P2;durP2;ratioP2
74849;SDS011;63397;47.480;19.238;2022-10-24T00:01:17;35.95;;;14.38;;
74849;SDS011;63397;47.480;19.238;2022-10-24T00:04:19;34.10;;;13.87;;
74849;SDS011;63397;47.480;19.238;2022-10-24T00:07:22;31.65;;;12.65;;
74849;SDS011;63397;47.480;19.238;2022-10-24T00:10:24;36.35;;;14.65;;
74849;SDS011;63397;47.480;19.238;2022-10-24T00:13:26;37.40;;;14.13;;
74849;SDS011;63397;47.480;19.238;2022-10-24T00:16:29;37.50;;;14.90;;
74849;SDS011;63397;47.480;19.238;2022-10-24T00:19:31;37.87;;;14.53;;
74849;SDS011;63397;47.480;19.238;2022-10-24T00:22:33;39.10;;;14.77;;
74849;SDS011;63397;47.480;19.238;2022-10-24T00:25:35;40.63;;;15.07;;
74849;SDS011;63397;47.480;19.238;2022-10-24T00:28:38;35.42;;;14.68;;
74849;SDS011;63397;47.480;19.238;2022-10-24T00:31:41;32.90;;;13.63;;
74849;SDS011;63397;47.480;19.238;2022-10-24T00:34:43;36.53;;;14.03;;
74849;SDS011;63397;47.480;19.238;2022-10-24T00:37:45;37.70;;;14.80;;
74849;SDS011;63397;47.480;19.238;2022-10-24T00:40:48;34.88;;;14.57;;
74849;SDS011;63397;47.480;19.238;2022-10-24T00:44:10;35.42;;;14.75;;
74849;SDS011;63397;47.480;19.238;2022-10-24T00:47:15;36.80;;;14.38;;
74849;SDS011;63397;47.480;19.238;2022-10-24T00:50:18;31.20;;;13.87;;
74849;SDS011;63397;47.480;19.238;2022-10-24T00:53:20;31.17;;;13.68;;
74849;SDS011;63397;47.480;19.238;2022-10-24T00:56:24;31.75;;;13.73;;
74849;SDS011;63397;47.480;19.238;2022-10-24T00:59:27;33.95;;;14.25;;
74849;SDS011;63397;47.480;19.238;2022-10-24T01:02:29;32.35;;;14.00;;
74849;SDS011;63397;47.480;19.238;2022-10-24T01:05:35;35.23;;;14.07;;
74849;SDS011;63397;47.480;19.238;2022-10-24T01:31:01;33.83;;;14.20;;
74849;SDS011;63397;47.480;19.238;2022-10-24T01:34:09;31.08;;;13.15;;
74849;SDS011;63397;47.480;19.238;2022-10-24T01:37:18;29.90;;;13.50;;
74849;SDS011;63397;47.480;19.238;2022-10-24T01:40:23;30.70;;;12.73;;
74849;SDS011;63397;47.480;19.238;2022-10-24T01:43:27;31.48;;;13.07;;
74849;SDS011;63397;47.480;19.238;2022-10-24T01:46:34;29.63;;;13.57;;
74849;SDS011;63397;47.480;19.238;2022-10-24T01:49:38;32.83;;;14.40;;
74849;SDS011;63397;47.480;19.238;2022-10-24T01:52:42;31.47;;;13.70;;
74849;SDS011;63397;47.480;19.238;2022-10-24T01:55:46;31.40;;;13.38;;
74849;SDS011;63397;47.480;19.238;2022-10-24T01:58:49;32.78;;;12.93;;
74849;SDS011;63397;47.480;19.238;2022-10-24T02:01:52;27.52;;;13.15;;
74849;SDS011;63397;47.480;19.238;2022-10-24T02:05:01;29.88;;;13.70;;
74849;SDS011;63397;47.480;19.238;2022-10-24T02:08:07;30.03;;;13.53;;
74849;SDS011;63397;47.480;19.238;2022-10-24T02:11:11;28.75;;;12.77;;
74849;SDS011;63397;47.480;19.238;2022-10-24T02:14:14;30.42;;;13.80;;
74849;SDS011;63397;47.480;19.238;2022-10-24T02:17:18;31.08;;;12.52;;
74849;SDS011;63397;47.480;19.238;2022-10-24T02:20:26;29.20;;;13.57;;
74849;SDS011;63397;47.480;19.238;2022-10-24T02:23:30;29.87;;;12.63;;
74849;SDS011;63397;47.480;19.238;2022-10-24T02:26:36;29.17;;;12.65;;
74849;SDS011;63397;47.480;19.238;2022-10-24T02:29:47;27.60;;;12.27;;
74849;SDS011;63397;47.480;19.238;2022-10-24T02:32:55;28.42;;;12.65;;
74849;SDS011;63397;47.480;19.238;2022-10-24T02:35:58;33.20;;;13.52;;
74849;SDS011;63397;47.480;19.238;2022-10-24T02:39:02;32.63;;;13.43;;
74849;SDS011;63397;47.480;19.238;2022-10-24T02:42:06;35.67;;;13.85;;
74849;SDS011;63397;47.480;19.238;2022-10-24T02:45:09;36.03;;;14.10;;
74849;SDS011;63397;47.480;19.238;2022-10-24T02:48:14;37.75;;;13.88;;
74849;SDS011;63397;47.480;19.238;2022-10-24T02:51:18;37.05;;;14.15;;
74849;SDS011;63397;47.480;19.238;2022-10-24T02:54:21;39.93;;;14.37;;
74849;SDS011;63397;47.480;19.238;2022-10-24T02:57:23;34.50;;;13.05;;
74849;SDS011;63397;47.480;19.238;2022-10-24T03:00:27;39.25;;;15.73;;
74849;SDS011;63397;47.480;19.238;2022-10-24T03:03:30;38.72;;;14.90;;
74849;SDS011;63397;47.480;19.238;2022-10-24T03:06:32;41.78;;;15.63;;
74849;SDS011;63397;47.480;19.238;2022-10-24T03:09:34;41.80;;;15.80;;
74849;SDS011;63397;47.480;19.238;2022-10-24T03:12:36;43.38;;;15.88;;
74849;SDS011;63397;47.480;19.238;2022-10-24T03:15:39;41.38;;;16.05;;
74849;SDS011;63397;47.480;19.238;2022-10-24T03:18:41;41.20;;;15.35;;
74849;SDS011;63397;47.480;19.238;2022-10-24T03:21:43;46.17;;;16.90;;
74849;SDS011;63397;47.480;19.238;2022-10-24T03:24:46;44.40;;;16.87;;
74849;SDS011;63397;47.480;19.238;2022-10-24T03:27:56;42.30;;;16.65;;
74849;SDS011;63397;47.480;19.238;2022-10-24T03:30:58;42.78;;;16.55;;
74849;SDS011;63397;47.480;19.238;2022-10-24T03:34:00;42.75;;;16.60;;
74849;SDS011;63397;47.480;19.238;2022-10-24T03:37:02;38.88;;;15.63;;
74849;SDS011;63397;47.480;19.238;2022-10-24T03:40:05;42.27;;;16.13;;
74849;SDS011;63397;47.480;19.238;2022-10-24T03:43:07;44.85;;;16.88;;
74849;SDS011;63397;47.480;19.238;2022-10-24T03:46:09;46.28;;;16.40;;
74849;SDS011;63397;47.480;19.238;2022-10-24T03:49:11;44.03;;;16.85;;
74849;SDS011;63397;47.480;19.238;2022-10-24T03:52:14;43.53;;;16.48;;
74849;SDS011;63397;47.480;19.238;2022-10-24T03:55:16;44.30;;;16.40;;
74849;SDS011;63397;47.480;19.238;2022-10-24T03:58:18;42.75;;;16.55;;
74849;SDS011;63397;47.480;19.238;2022-10-24T04:01:21;40.55;;;16.40;;
74849;SDS011;63397;47.480;19.238;2022-10-24T04:04:24;40.25;;;15.15;;
74849;SDS011;63397;47.480;19.238;2022-10-24T04:07:27;42.92;;;16.20;;
74849;SDS011;63397;47.480;19.238;2022-10-24T04:10:29;40.47;;;15.70;;
74849;SDS011;63397;47.480;19.238;2022-10-24T04:13:31;43.60;;;16.45;;
74849;SDS011;63397;47.480;19.238;2022-10-24T04:16:34;43.47;;;15.27;;
74849;SDS011;63397;47.480;19.238;2022-10-24T04:19:36;42.25;;;15.77;;
74849;SDS011;63397;47.480;19.238;2022-10-24T04:22:38;46.10;;;16.10;;
74849;SDS011;63397;47.480;19.238;2022-10-24T04:25:40;41.93;;;15.73;;
74849;SDS011;63397;47.480;19.238;2022-10-24T04:28:43;47.30;;;15.68;;
74849;SDS011;63397;47.480;19.238;2022-10-24T04:31:47;44.28;;;16.83;;
74849;SDS011;63397;47.480;19.238;2022-10-24T04:34:50;49.75;;;17.10;;
74849;SDS011;63397;47.480;19.238;2022-10-24T04:37:52;45.30;;;15.68;;
74849;SDS011;63397;47.480;19.238;2022-10-24T04:40:54;44.13;;;15.33;;
74849;SDS011;63397;47.480;19.238;2022-10-24T04:43:58;46.25;;;15.57;;
74849;SDS011;63397;47.480;19.238;2022-10-24T04:47:00;41.83;;;15.05;;
74849;SDS011;63397;47.480;19.238;2022-10-24T04:50:03;44.63;;;15.25;;
74849;SDS011;63397;47.480;19.238;2022-10-24T04:53:06;49.47;;;16.77;;
74849;SDS011;63397;47.480;19.238;2022-10-24T04:56:08;49.57;;;16.40;;
74849;SDS011;63397;47.480;19.238;2022-10-24T04:59:10;47.33;;;15.50;;
74849;SDS011;63397;47.480;19.238;2022-10-24T05:02:12;45.53;;;16.00;;
74849;SDS011;63397;47.480;19.238;2022-10-24T05:05:15;48.80;;;16.73;;
74849;SDS011;63397;47.480;19.238;2022-10-24T05:08:18;47.95;;;15.15;;
74849;SDS011;63397;47.480;19.238;2022-10-24T05:11:21;50.40;;;15.63;;
74849;SDS011;63397;47.480;19.238;2022-10-24T05:14:23;48.03;;;14.93;;
74849;SDS011;63397;47.480;19.238;2022-10-24T05:17:25;44.65;;;15.15;;
74849;SDS011;63397;47.480;19.238;2022-10-24T05:20:28;47.30;;;15.30;;
74849;SDS011;63397;47.480;19.238;2022-10-24T05:23:30;46.08;;;15.27;;
74849;SDS011;63397;47.480;19.238;2022-10-24T05:26:32;46.80;;;15.00;;
74849;SDS011;63397;47.480;19.238;2022-10-24T05:29:35;49.65;;;15.00;;
74849;SDS011;63397;47.480;19.238;2022-10-24T05:32:38;47.47;;;15.52;;
74849;SDS011;63397;47.480;19.238;2022-10-24T05:35:42;50.03;;;14.80;;
74849;SDS011;63397;47.480;19.238;2022-10-24T05:38:45;46.20;;;14.65;;
74849;SDS011;63397;47.480;19.238;2022-10-24T05:41:47;43.50;;;13.80;;
74849;SDS011;63397;47.480;19.238;2022-10-24T05:48:32;49.47;;;15.45;;
74849;SDS011;63397;47.480;19.238;2022-10-24T05:51:44;41.80;;;14.27;;
74849;SDS011;63397;47.480;19.238;2022-10-24T05:54:53;46.72;;;14.50;;
74849;SDS011;63397;47.480;19.238;2022-10-24T05:58:23;44.80;;;14.23;;
74849;SDS011;63397;47.480;19.238;2022-10-24T06:01:51;44.22;;;13.60;;
74849;SDS011;63397;47.480;19.238;2022-10-24T06:04:54;42.95;;;14.15;;
74849;SDS011;63397;47.480;19.238;2022-10-24T06:07:59;45.13;;;13.88;;
74849;SDS011;63397;47.480;19.238;2022-10-24T06:11:07;45.05;;;14.10;;
74849;SDS011;63397;47.480;19.238;2022-10-24T06:14:13;44.27;;;13.53;;
74849;SDS011;63397;47.480;19.238;2022-10-24T06:17:20;43.00;;;15.07;;
74849;SDS011;63397;47.480;19.238;2022-10-24T06:20:24;40.28;;;12.88;;
74849;SDS011;63397;47.480;19.238;2022-10-24T06:23:27;47.20;;;14.35;;
74849;SDS011;63397;47.480;19.238;2022-10-24T06:26:36;48.38;;;15.23;;
74849;SDS011;63397;47.480;19.238;2022-10-24T06:29:40;46.40;;;14.90;;
74849;SDS011;63397;47.480;19.238;2022-10-24T06:32:44;48.08;;;15.38;;
74849;SDS011;63397;47.480;19.238;2022-10-24T06:35:51;41.42;;;15.02;;
74849;SDS011;63397;47.480;19.238;2022-10-24T06:39:10;49.85;;;15.65;;
74849;SDS011;63397;47.480;19.238;2022-10-24T06:42:17;43.80;;;14.55;;
74849;SDS011;63397;47.480;19.238;2022-10-24T06:45:20;46.80;;;14.53;;
74849;SDS011;63397;47.480;19.238;2022-10-24T06:48:28;53.03;;;15.10;;
74849;SDS011;63397;47.480;19.238;2022-10-24T06:51:41;47.75;;;15.07;;
74849;SDS011;63397;47.480;19.238;2022-10-24T06:54:55;49.83;;;15.32;;
74849;SDS011;63397;47.480;19.238;2022-10-24T06:57:59;48.15;;;15.45;;
74849;SDS011;63397;47.480;19.238;2022-10-24T07:04:37;52.08;;;16.08;;
74849;SDS011;63397;47.480;19.238;2022-10-24T07:07:39;49.63;;;15.45;;
74849;SDS011;63397;47.480;19.238;2022-10-24T07:10:42;56.50;;;17.33;;
74849;SDS011;63397;47.480;19.238;2022-10-24T07:13:45;47.92;;;15.30;;
74849;SDS011;63397;47.480;19.238;2022-10-24T07:16:51;49.23;;;15.40;;
74849;SDS011;63397;47.480;19.238;2022-10-24T07:19:54;44.35;;;14.45;;
74849;SDS011;63397;47.480;19.238;2022-10-24T07:22:58;46.78;;;15.18;;
74849;SDS011;63397;47.480;19.238;2022-10-24T07:26:02;41.78;;;14.18;;
74849;SDS011;63397;47.480;19.238;2022-10-24T07:29:06;42.47;;;14.20;;
74849;SDS011;63397;47.480;19.238;2022-10-24T07:32:09;41.77;;;13.73;;
74849;SDS011;63397;47.480;19.238;2022-10-24T07:35:12;36.78;;;13.85;;
74849;SDS011;63397;47.480;19.238;2022-10-24T07:38:14;42.08;;;14.70;;
74849;SDS011;63397;47.480;19.238;2022-10-24T07:41:19;39.00;;;13.52;;
74849;SDS011;63397;47.480;19.238;2022-10-24T07:44:23;38.55;;;13.88;;
74849;SDS011;63397;47.480;19.238;2022-10-24T07:47:26;40.40;;;13.97;;
74849;SDS011;63397;47.480;19.238;2022-10-24T07:50:30;37.97;;;13.77;;
74849;SDS011;63397;47.480;19.238;2022-10-24T07:58:23;31.98;;;12.23;;
74849;SDS011;63397;47.480;19.238;2022-10-24T08:01:26;37.42;;;13.38;;
74849;SDS011;63397;47.480;19.238;2022-10-24T08:04:35;36.30;;;12.37;;
74849;SDS011;63397;47.480;19.238;2022-10-24T08:07:53;35.20;;;13.55;;
74849;SDS011;63397;47.480;19.238;2022-10-24T08:11:17;36.65;;;13.15;;
74849;SDS011;63397;47.480;19.238;2022-10-24T08:14:28;34.00;;;12.98;;
74849;SDS011;63397;47.480;19.238;2022-10-24T08:17:36;31.23;;;12.70;;
74849;SDS011;63397;47.480;19.238;2022-10-24T08:20:39;33.33;;;13.23;;
74849;SDS011;63397;47.480;19.238;2022-10-24T08:23:43;34.88;;;12.35;;
74849;SDS011;63397;47.480;19.238;2022-10-24T08:26:48;32.50;;;12.85;;
74849;SDS011;63397;47.480;19.238;2022-10-24T08:29:52;34.80;;;12.70;;
74849;SDS011;63397;47.480;19.238;2022-10-24T08:32:58;30.95;;;12.18;;
74849;SDS011;63397;47.480;19.238;2022-10-24T08:39:36;31.02;;;13.02;;
74849;SDS011;63397;47.480;19.238;2022-10-24T08:42:42;31.73;;;11.90;;
74849;SDS011;63397;47.480;19.238;2022-10-24T08:49:51;37.33;;;12.02;;
74849;SDS011;63397;47.480;19.238;2022-10-24T08:56:17;36.03;;;12.38;;
74849;SDS011;63397;47.480;19.238;2022-10-24T08:59:33;32.45;;;13.15;;
74849;SDS011;63397;47.480;19.238;2022-10-24T09:02:37;29.85;;;11.93;;
74849;SDS011;63397;47.480;19.238;2022-10-24T09:05:44;36.40;;;12.45;;
74849;SDS011;63397;47.480;19.238;2022-10-24T09:09:01;30.27;;;11.90;;
74849;SDS011;63397;47.480;19.238;2022-10-24T09:12:22;34.20;;;12.50;;
74849;SDS011;63397;47.480;19.238;2022-10-24T09:15:29;32.17;;;11.10;;
74849;SDS011;63397;47.480;19.238;2022-10-24T09:18:39;28.60;;;11.25;;
74849;SDS011;63397;47.480;19.238;2022-10-24T09:21:42;29.15;;;12.25;;
74849;SDS011;63397;47.480;19.238;2022-10-24T09:27:52;28.77;;;11.50;;
74849;SDS011;63397;47.480;19.238;2022-10-24T09:30:54;31.23;;;12.18;;
74849;SDS011;63397;47.480;19.238;2022-10-24T09:34:04;30.27;;;11.63;;
74849;SDS011;63397;47.480;19.238;2022-10-24T09:37:27;33.45;;;12.13;;
74849;SDS011;63397;47.480;19.238;2022-10-24T09:40:37;27.57;;;10.80;;
74849;SDS011;63397;47.480;19.238;2022-10-24T09:46:48;29.25;;;12.05;;
74849;SDS011;63397;47.480;19.238;2022-10-24T09:49:50;27.60;;;11.45;;
74849;SDS011;63397;47.480;19.238;2022-10-24T09:52:55;29.50;;;12.25;;
74849;SDS011;63397;47.480;19.238;2022-10-24T09:56:06;31.73;;;12.77;;
74849;SDS011;63397;47.480;19.238;2022-10-24T09:59:57;30.92;;;12.18;;
74849;SDS011;63397;47.480;19.238;2022-10-24T10:02:36;27.33;;;11.43;;
74849;SDS011;63397;47.480;19.238;2022-10-24T10:05:43;28.42;;;11.77;;
74849;SDS011;63397;47.480;19.238;2022-10-24T10:08:49;26.35;;;11.07;;
74849;SDS011;63397;47.480;19.238;2022-10-24T10:11:56;26.43;;;11.53;;
74849;SDS011;63397;47.480;19.238;2022-10-24T10:15:24;29.65;;;11.88;;
74849;SDS011;63397;47.480;19.238;2022-10-24T10:18:30;31.05;;;12.15;;
74849;SDS011;63397;47.480;19.238;2022-10-24T10:24:58;36.35;;;12.90;;
74849;SDS011;63397;47.480;19.238;2022-10-24T10:28:02;36.63;;;13.03;;
74849;SDS011;63397;47.480;19.238;2022-10-24T10:31:04;33.92;;;13.20;;
74849;SDS011;63397;47.480;19.238;2022-10-24T10:34:19;36.22;;;12.20;;
74849;SDS011;63397;47.480;19.238;2022-10-24T10:37:28;37.10;;;13.77;;
74849;SDS011;63397;47.480;19.238;2022-10-24T11:12:39;41.13;;;14.02;;
74849;SDS011;63397;47.480;19.238;2022-10-24T11:15:45;36.95;;;14.25;;
74849;SDS011;63397;47.480;19.238;2022-10-24T11:18:50;35.27;;;14.03;;
74849;SDS011;63397;47.480;19.238;2022-10-24T11:21:55;37.88;;;14.32;;
74849;SDS011;63397;47.480;19.238;2022-10-24T11:25:26;37.38;;;14.50;;
74849;SDS011;63397;47.480;19.238;2022-10-24T11:28:30;39.47;;;14.27;;
74849;SDS011;63397;47.480;19.238;2022-10-24T11:35:16;32.50;;;12.53;;
74849;SDS011;63397;47.480;19.238;2022-10-24T11:38:29;32.65;;;13.07;;
74849;SDS011;63397;47.480;19.238;2022-10-24T11:41:46;31.45;;;12.75;;
74849;SDS011;63397;47.480;19.238;2022-10-24T11:55:07;30.25;;;12.73;;
74849;SDS011;63397;47.480;19.238;2022-10-24T11:58:28;30.35;;;13.02;;
74849;SDS011;63397;47.480;19.238;2022-10-24T12:05:50;26.10;;;11.38;;
74849;SDS011;63397;47.480;19.238;2022-10-24T12:11:34;24.60;;;11.20;;
74849;SDS011;63397;47.480;19.238;2022-10-24T12:21:24;27.40;;;11.88;;
74849;SDS011;63397;47.480;19.238;2022-10-24T12:24:33;24.52;;;11.52;;
74849;SDS011;63397;47.480;19.238;2022-10-24T12:27:38;29.30;;;11.80;;
74849;SDS011;63397;47.480;19.238;2022-10-24T12:30:41;26.30;;;11.38;;
74849;SDS011;63397;47.480;19.238;2022-10-24T12:33:45;25.42;;;10.93;;
74849;SDS011;63397;47.480;19.238;2022-10-24T12:37:11;26.75;;;12.23;;
74849;SDS011;63397;47.480;19.238;2022-10-24T12:43:39;26.90;;;11.77;;
74849;SDS011;63397;47.480;19.238;2022-10-24T12:49:49;28.30;;;12.55;;
74849;SDS011;63397;47.480;19.238;2022-10-24T12:59:23;34.87;;;13.00;;
74849;SDS011;63397;47.480;19.238;2022-10-24T13:09:25;29.65;;;12.38;;
74849;SDS011;63397;47.480;19.238;2022-10-24T13:12:37;36.42;;;12.48;;
74849;SDS011;63397;47.480;19.238;2022-10-24T13:22:04;30.85;;;12.88;;
74849;SDS011;63397;47.480;19.238;2022-10-24T13:25:30;31.40;;;12.88;;
74849;SDS011;63397;47.480;19.238;2022-10-24T13:28:37;36.42;;;13.18;;
74849;SDS011;63397;47.480;19.238;2022-10-24T13:31:44;33.60;;;13.73;;
74849;SDS011;63397;47.480;19.238;2022-10-24T13:38:04;41.05;;;13.90;;
74849;SDS011;63397;47.480;19.238;2022-10-24T13:41:09;32.80;;;13.07;;
74849;SDS011;63397;47.480;19.238;2022-10-24T13:44:25;35.05;;;13.40;;
74849;SDS011;63397;47.480;19.238;2022-10-24T13:47:33;33.80;;;13.80;;
74849;SDS011;63397;47.480;19.238;2022-10-24T13:50:40;33.03;;;13.27;;
74849;SDS011;63397;47.480;19.238;2022-10-24T13:54:09;32.75;;;13.75;;
74849;SDS011;63397;47.480;19.238;2022-10-24T14:00:41;39.25;;;13.88;;
74849;SDS011;63397;47.480;19.238;2022-10-24T14:03:44;35.80;;;13.03;;
74849;SDS011;63397;47.480;19.238;2022-10-24T14:06:47;38.17;;;14.48;;
74849;SDS011;63397;47.480;19.238;2022-10-24T14:09:56;37.08;;;13.82;;
74849;SDS011;63397;47.480;19.238;2022-10-24T14:13:00;36.20;;;14.15;;
74849;SDS011;63397;47.480;19.238;2022-10-24T14:16:03;39.75;;;14.70;;
74849;SDS011;63397;47.480;19.238;2022-10-24T14:19:24;38.23;;;14.33;;
74849;SDS011;63397;47.480;19.238;2022-10-24T14:22:36;30.98;;;13.43;;
74849;SDS011;63397;47.480;19.238;2022-10-24T14:25:40;38.40;;;15.10;;
74849;SDS011;63397;47.480;19.238;2022-10-24T14:28:44;35.38;;;13.00;;
74849;SDS011;63397;47.480;19.238;2022-10-24T14:31:52;34.92;;;14.80;;
74849;SDS011;63397;47.480;19.238;2022-10-24T14:34:55;37.57;;;14.07;;
74849;SDS011;63397;47.480;19.238;2022-10-24T14:37:59;37.28;;;13.98;;
74849;SDS011;63397;47.480;19.238;2022-10-24T14:41:01;46.72;;;16.23;;
74849;SDS011;63397;47.480;19.238;2022-10-24T14:44:12;39.80;;;17.00;;
74849;SDS011;63397;47.480;19.238;2022-10-24T14:47:27;41.63;;;15.35;;
74849;SDS011;63397;47.480;19.238;2022-10-24T14:50:34;38.83;;;15.33;;
74849;SDS011;63397;47.480;19.238;2022-10-24T14:53:37;35.72;;;14.90;;
74849;SDS011;63397;47.480;19.238;2022-10-24T14:56:40;39.83;;;16.83;;
74849;SDS011;63397;47.480;19.238;2022-10-24T14:59:43;39.60;;;15.70;;
74849;SDS011;63397;47.480;19.238;2022-10-24T15:02:47;46.05;;;16.25;;
74849;SDS011;63397;47.480;19.238;2022-10-24T15:05:52;42.63;;;17.57;;
74849;SDS011;63397;47.480;19.238;2022-10-24T15:09:05;45.05;;;16.83;;
74849;SDS011;63397;47.480;19.238;2022-10-24T15:12:11;42.95;;;16.58;;
74849;SDS011;63397;47.480;19.238;2022-10-24T15:18:26;40.72;;;16.95;;
74849;SDS011;63397;47.480;19.238;2022-10-24T15:21:30;42.03;;;16.43;;
74849;SDS011;63397;47.480;19.238;2022-10-24T15:24:33;44.40;;;17.90;;
74849;SDS011;63397;47.480;19.238;2022-10-24T15:27:39;47.95;;;17.13;;
74849;SDS011;63397;47.480;19.238;2022-10-24T15:30:42;48.95;;;17.20;;
74849;SDS011;63397;47.480;19.238;2022-10-24T15:33:45;42.83;;;16.80;;
74849;SDS011;63397;47.480;19.238;2022-10-24T15:36:49;46.67;;;16.50;;
74849;SDS011;63397;47.480;19.238;2022-10-24T15:39:51;47.28;;;17.38;;
74849;SDS011;63397;47.480;19.238;2022-10-24T15:42:54;57.17;;;18.15;;
74849;SDS011;63397;47.480;19.238;2022-10-24T15:45:57;48.25;;;17.20;;
74849;SDS011;63397;47.480;19.238;2022-10-24T15:48:59;49.30;;;17.30;;
74849;SDS011;63397;47.480;19.238;2022-10-24T15:52:04;45.23;;;17.47;;
74849;SDS011;63397;47.480;19.238;2022-10-24T15:55:09;44.42;;;17.00;;
74849;SDS011;63397;47.480;19.238;2022-10-24T15:58:17;45.05;;;17.10;;
74849;SDS011;63397;47.480;19.238;2022-10-24T16:01:30;47.80;;;17.40;;
74849;SDS011;63397;47.480;19.238;2022-10-24T16:04:35;47.00;;;16.73;;
74849;SDS011;63397;47.480;19.238;2022-10-24T16:07:41;43.20;;;15.87;;
74849;SDS011;63397;47.480;19.238;2022-10-24T16:10:43;46.45;;;16.35;;
74849;SDS011;63397;47.480;19.238;2022-10-24T16:13:46;42.83;;;17.17;;
74849;SDS011;63397;47.480;19.238;2022-10-24T16:16:48;42.33;;;16.85;;
74849;SDS011;63397;47.480;19.238;2022-10-24T16:19:51;42.40;;;17.60;;
74849;SDS011;63397;47.480;19.238;2022-10-24T16:22:56;46.97;;;17.57;;
74849;SDS011;63397;47.480;19.238;2022-10-24T16:26:02;47.53;;;16.48;;
74849;SDS011;63397;47.480;19.238;2022-10-24T16:29:04;50.13;;;17.95;;
74849;SDS011;63397;47.480;19.238;2022-10-24T16:32:06;44.97;;;16.50;;
74849;SDS011;63397;47.480;19.238;2022-10-24T16:35:10;42.72;;;16.75;;
74849;SDS011;63397;47.480;19.238;2022-10-24T16:38:17;43.93;;;16.30;;
74849;SDS011;63397;47.480;19.238;2022-10-24T16:41:20;44.75;;;17.08;;
74849;SDS011;63397;47.480;19.238;2022-10-24T16:44:23;47.47;;;17.38;;
74849;SDS011;63397;47.480;19.238;2022-10-24T16:47:28;45.05;;;16.92;;
74849;SDS011;63397;47.480;19.238;2022-10-24T16:50:30;48.03;;;17.20;;
74849;SDS011;63397;47.480;19.238;2022-10-24T16:53:33;50.33;;;18.07;;
74849;SDS011;63397;47.480;19.238;2022-10-24T16:56:35;48.95;;;17.90;;
74849;SDS011;63397;47.480;19.238;2022-10-24T16:59:38;47.47;;;17.52;;
74849;SDS011;63397;47.480;19.238;2022-10-24T17:02:40;49.22;;;17.50;;
74849;SDS011;63397;47.480;19.238;2022-10-24T17:05:44;55.63;;;18.33;;
74849;SDS011;63397;47.480;19.238;2022-10-24T17:08:50;52.43;;;17.70;;
74849;SDS011;63397;47.480;19.238;2022-10-24T17:11:53;48.30;;;18.35;;
74849;SDS011;63397;47.480;19.238;2022-10-24T17:14:57;53.08;;;19.42;;
74849;SDS011;63397;47.480;19.238;2022-10-24T17:18:00;52.97;;;19.50;;
74849;SDS011;63397;47.480;19.238;2022-10-24T17:21:03;58.20;;;21.50;;
74849;SDS011;63397;47.480;19.238;2022-10-24T17:24:08;55.73;;;19.60;;
74849;SDS011;63397;47.480;19.238;2022-10-24T17:27:11;66.07;;;21.92;;
74849;SDS011;63397;47.480;19.238;2022-10-24T17:30:18;62.90;;;22.13;;
74849;SDS011;63397;47.480;19.238;2022-10-24T17:33:20;61.53;;;20.90;;
74849;SDS011;63397;47.480;19.238;2022-10-24T17:36:27;59.53;;;22.67;;
74849;SDS011;63397;47.480;19.238;2022-10-24T17:39:35;54.33;;;21.63;;
74849;SDS011;63397;47.480;19.238;2022-10-24T17:42:46;68.50;;;21.60;;
74849;SDS011;63397;47.480;19.238;2022-10-24T17:45:50;64.68;;;21.08;;
74849;SDS011;63397;47.480;19.238;2022-10-24T17:48:53;59.05;;;20.48;;
74849;SDS011;63397;47.480;19.238;2022-10-24T17:51:57;57.63;;;20.60;;
74849;SDS011;63397;47.480;19.238;2022-10-24T17:55:00;66.57;;;22.30;;
74849;SDS011;63397;47.480;19.238;2022-10-24T17:58:02;70.30;;;21.33;;
74849;SDS011;63397;47.480;19.238;2022-10-24T18:01:05;76.57;;;22.33;;
74849;SDS011;63397;47.480;19.238;2022-10-24T18:04:07;57.42;;;19.30;;
74849;SDS011;63397;47.480;19.238;2022-10-24T18:07:10;59.20;;;20.63;;
74849;SDS011;63397;47.480;19.238;2022-10-24T18:10:12;60.40;;;21.13;;
74849;SDS011;63397;47.480;19.238;2022-10-24T18:13:15;74.00;;;23.55;;
74849;SDS011;63397;47.480;19.238;2022-10-24T18:16:17;76.22;;;23.95;;
74849;SDS011;63397;47.480;19.238;2022-10-24T18:19:20;76.22;;;22.48;;
74849;SDS011;63397;47.480;19.238;2022-10-24T18:22:22;72.28;;;23.02;;
74849;SDS011;63397;47.480;19.238;2022-10-24T18:25:25;76.13;;;23.50;;
74849;SDS011;63397;47.480;19.238;2022-10-24T18:28:28;76.40;;;22.45;;
74849;SDS011;63397;47.480;19.238;2022-10-24T18:31:30;84.50;;;24.85;;
74849;SDS011;63397;47.480;19.238;2022-10-24T18:34:33;69.65;;;21.90;;
74849;SDS011;63397;47.480;19.238;2022-10-24T18:37:35;68.43;;;22.65;;
74849;SDS011;63397;47.480;19.238;2022-10-24T18:40:38;101.80;;;28.20;;
74849;SDS011;63397;47.480;19.238;2022-10-24T18:43:40;78.28;;;24.30;;
74849;SDS011;63397;47.480;19.238;2022-10-24T18:46:43;83.05;;;23.58;;
74849;SDS011;63397;47.480;19.238;2022-10-24T18:49:46;73.18;;;24.52;;
74849;SDS011;63397;47.480;19.238;2022-10-24T18:55:53;53.93;;;18.90;;
74849;SDS011;63397;47.480;19.238;2022-10-24T18:58:57;58.42;;;21.60;;
74849;SDS011;63397;47.480;19.238;2022-10-24T19:08:24;75.70;;;24.40;;
74849;SDS011;63397;47.480;19.238;2022-10-24T19:11:26;76.03;;;24.57;;
74849;SDS011;63397;47.480;19.238;2022-10-24T19:14:29;114.95;;;32.58;;
74849;SDS011;63397;47.480;19.238;2022-10-24T19:17:31;163.23;;;39.67;;
74849;SDS011;63397;47.480;19.238;2022-10-24T19:20:33;151.25;;;37.05;;
74849;SDS011;63397;47.480;19.238;2022-10-24T19:23:36;180.52;;;41.35;;
74849;SDS011;63397;47.480;19.238;2022-10-24T19:26:39;148.17;;;36.07;;
74849;SDS011;63397;47.480;19.238;2022-10-24T19:29:41;149.50;;;37.78;;
74849;SDS011;63397;47.480;19.238;2022-10-24T19:32:43;168.73;;;41.17;;
74849;SDS011;63397;47.480;19.238;2022-10-24T19:35:46;182.45;;;41.40;;
74849;SDS011;63397;47.480;19.238;2022-10-24T19:38:58;162.82;;;38.42;;
74849;SDS011;63397;47.480;19.238;2022-10-24T19:42:00;139.83;;;37.30;;
74849;SDS011;63397;47.480;19.238;2022-10-24T19:45:02;140.48;;;36.03;;
74849;SDS011;63397;47.480;19.238;2022-10-24T19:48:06;131.02;;;36.08;;
74849;SDS011;63397;47.480;19.238;2022-10-24T19:51:10;125.60;;;36.03;;
74849;SDS011;63397;47.480;19.238;2022-10-24T19:54:13;115.10;;;35.58;;
74849;SDS011;63397;47.480;19.238;2022-10-24T19:57:15;115.27;;;35.47;;
74849;SDS011;63397;47.480;19.238;2022-10-24T20:00:18;116.28;;;35.08;;
74849;SDS011;63397;47.480;19.238;2022-10-24T20:03:20;111.28;;;35.80;;
74849;SDS011;63397;47.480;19.238;2022-10-24T20:06:23;112.20;;;34.80;;
74849;SDS011;63397;47.480;19.238;2022-10-24T20:09:26;123.22;;;37.33;;
74849;SDS011;63397;47.480;19.238;2022-10-24T20:12:28;147.07;;;38.20;;
74849;SDS011;63397;47.480;19.238;2022-10-24T20:15:30;127.97;;;37.80;;
74849;SDS011;63397;47.480;19.238;2022-10-24T20:18:33;145.77;;;39.30;;
74849;SDS011;63397;47.480;19.238;2022-10-24T20:21:36;151.48;;;38.33;;
74849;SDS011;63397;47.480;19.238;2022-10-24T20:24:38;152.27;;;38.85;;
74849;SDS011;63397;47.480;19.238;2022-10-24T20:27:41;159.80;;;37.33;;